EST,Max TemperatureF,Mean TemperatureF,Min TemperatureF,Max Dew PointF,MeanDew PointF,Min DewpointF,Max Humidity, Mean Humidity, Min Humidity, Max Sea Level PressureIn, Mean Sea Level PressureIn, Min Sea Level PressureIn, Max VisibilityMiles, Mean VisibilityMiles, Min VisibilityMiles, Max Wind SpeedMPH, Mean Wind SpeedMPH, Max Gust SpeedMPH,PrecipitationIn, CloudCover, Events, WindDirDegrees
2013-12-1,45,34,24,32,28,21,89,77,58,30.20,30.09,29.98,10,10,7,9,1,,0.00,5,,196
2013-12-2,48,40,33,36,33,30,93,80,61,29.95,29.89,29.84,10,7,2,6,1,,0.04,6,Rain,26
2013-12-3,54,44,35,42,37,33,93,84,62,29.90,29.86,29.83,10,5,1,8,3,,0.02,3,Rain,74
2013-12-4,61,49,37,50,44,36,97,81,62,29.94,29.86,29.79,10,7,1,9,2,,0.00,5,,169
2013-12-5,61,48,35,58,49,30,94,83,63,30.13,29.89,29.79,10,7,2,14,8,20,0.37,7,Rain,237
2013-12-6,35,32,27,32,27,23,89,85,80,30.36,30.20,30.10,10,5,0,12,5,17,0.39,8,Fog-Rain-Snow,353
2013-12-7,27,21,15,22,14,10,84,68,51,30.62,30.53,30.36,10,10,9,12,6,,0.00,3,,340
2013-12-8,30,23,16,30,21,11,100,83,68,30.57,30.24,30.00,10,5,1,13,6,17,0.01,7,Snow,72
2013-12-9,35,31,27,33,27,18,93,81,67,30.20,30.08,29.96,10,8,2,18,6,24,0.02,7,Rain,241
2013-12-10,26,22,18,19,15,9,93,74,55,30.34,30.17,30.10,10,6,1,15,8,22,0.07,5,Snow,264
2013-12-11,30,21,12,18,13,7,80,69,56,30.48,30.37,30.27,10,10,7,15,7,23,0.00,4,Snow,249
2013-12-12,19,12,6,8,3,-2,85,62,40,30.54,30.45,30.33,10,10,7,13,6,,0.00,1,,238
2013-12-13,34,26,18,22,14,6,75,61,52,30.32,30.27,30.21,10,10,9,12,5,,0.00,2,,218
2013-12-14,39,34,30,36,30,21,93,85,69,30.22,29.97,29.69,9,3,1,13,4,,0.51,8,Rain-Snow,61
2013-12-15,35,30,25,30,20,11,86,71,55,30.10,29.94,29.75,10,8,4,21,14,31,0.00,8,,267
2013-12-16,30,24,21,25,19,13,93,77,60,30.19,30.09,30.00,10,4,1,14,5,20,0.06,8,Snow,349
2013-12-17,35,32,28,29,23,19,87,76,69,30.13,30.03,29.94,10,6,2,15,8,25,0.00,8,Snow,263
2013-12-18,30,24,18,22,18,12,78,69,56,30.24,30.17,30.08,10,9,7,14,8,21,0.00,5,,231
2013-12-19,50,40,30,36,27,16,82,59,45,30.10,30.05,29.99,10,10,10,14,8,21,0.00,0,,224
2013-12-20,57,47,39,52,44,31,89,75,54,29.98,29.91,29.86,10,9,4,13,6,17,0.04,8,Rain,198
2013-12-21,68,62,57,61,56,52,90,86,70,29.84,29.74,29.48,10,6,2,18,9,29,1.07,8,Rain,187
2013-12-22,64,56,46,61,48,42,94,78,66,29.99,29.77,29.52,10,9,2,22,15,48,0.52,7,Rain,225
2013-12-23,44,37,28,41,29,18,93,75,60,30.35,30.19,29.98,10,10,5,15,10,22,0.04,8,Rain,281
2013-12-24,28,21,12,21,12,5,86,72,62,30.60,30.42,30.29,10,7,1,16,8,22,0.00,6,Snow,288
2013-12-25,30,21,12,25,14,9,84,67,45,30.54,30.38,30.19,10,10,9,10,4,20,0.00,5,,182
2013-12-26,37,32,26,25,22,17,84,65,44,30.36,30.25,30.13,10,10,10,21,10,30,0.00,5,,241
2013-12-27,44,37,30,28,25,21,82,64,53,30.40,30.33,30.28,10,10,10,13,5,20,0.00,4,,220
2013-12-28,52,43,34,32,28,24,76,60,45,30.26,30.18,30.04,10,10,10,15,7,18,0.00,0,,211
2013-12-29,43,40,35,40,35,25,93,83,51,30.03,29.85,29.75,10,8,2,15,5,25,0.37,8,Rain,251
2013-12-30,33,30,26,27,20,17,82,70,63,30.24,30.15,29.95,10,9,2,18,9,25,0.00,8,Snow,307
2013-12-31,27,24,19,18,16,12,85,69,55,30.34,30.24,30.11,10,7,2,18,12,24,0.00,6,Snow,255